createdAt,value
2022-10-11T00:02:02.479Z,87.40
2022-10-11T00:04:47.830Z,87.40
2022-10-11T00:07:33.400Z,87.30
2022-10-11T00:10:19.756Z,87.50
2022-10-11T00:13:05.980Z,87.00
2022-10-11T00:15:51.590Z,87.20
2022-10-11T00:18:37.186Z,87.30
2022-10-11T00:21:22.524Z,87.00
2022-10-11T00:24:08.251Z,86.70
2022-10-11T00:26:53.337Z,87.30
2022-10-11T00:29:39.763Z,87.20
2022-10-11T00:32:25.189Z,87.20
2022-10-11T00:35:10.807Z,87.50
2022-10-11T00:37:57.251Z,87.40
2022-10-11T00:40:43.004Z,87.20
2022-10-11T00:43:30.462Z,87.00
2022-10-11T00:46:19.534Z,87.00
2022-10-11T00:49:14.083Z,87.20
2022-10-11T00:52:04.615Z,87.40
2022-10-11T00:54:49.995Z,87.40
2022-10-11T00:57:39.988Z,87.00
2022-10-11T01:00:25.371Z,87.10
2022-10-11T01:03:11.069Z,88.30
2022-10-11T01:05:58.737Z,88.00
2022-10-11T01:08:44.688Z,87.80
2022-10-11T01:11:31.270Z,87.90
2022-10-11T01:14:38.722Z,87.60
2022-10-11T01:17:30.091Z,88.10
2022-10-11T01:20:31.875Z,88.10
2022-10-11T01:23:44.146Z,88.90
2022-10-11T01:26:51.304Z,89.20
2022-10-11T01:29:42.377Z,88.50
2022-10-11T01:32:35.259Z,88.50
2022-10-11T01:35:29.681Z,88.50
2022-10-11T01:38:21.347Z,88.60
2022-10-11T01:41:15.380Z,89.30
2022-10-11T01:44:02.318Z,89.50
2022-10-11T01:46:47.800Z,89.70
2022-10-11T01:49:33.611Z,89.40
2022-10-11T01:52:18.918Z,89.20
2022-10-11T01:55:29.939Z,89.00
2022-10-11T01:58:21.475Z,89.20
2022-10-11T02:01:30.812Z,89.40
2022-10-11T02:04:28.659Z,89.30
2022-10-11T02:07:26.046Z,89.20
2022-10-11T02:10:36.280Z,89.00
2022-10-11T02:13:38.006Z,88.90
2022-10-11T02:16:31.024Z,89.20
2022-10-11T02:19:22.403Z,89.20
2022-10-11T02:22:18.435Z,89.20
2022-10-11T02:25:09.737Z,89.70
2022-10-11T02:27:59.830Z,89.60
2022-10-11T02:30:48.315Z,89.50
2022-10-11T02:33:50.314Z,89.50
2022-10-11T02:36:56.467Z,89.50
2022-10-11T02:40:14.469Z,89.90
2022-10-11T02:43:12.376Z,90.00
2022-10-11T02:46:02.631Z,89.90
2022-10-11T02:48:48.472Z,89.90
2022-10-11T02:51:34.231Z,90.00
2022-10-11T02:54:19.707Z,90.10
2022-10-11T02:57:05.522Z,89.90
2022-10-11T02:59:52.972Z,89.70
2022-10-11T03:02:38.380Z,89.60
2022-10-11T03:05:23.903Z,89.60
2022-10-11T03:08:14.188Z,89.50
2022-10-11T03:11:06.438Z,89.80
2022-10-11T03:13:55.219Z,89.80
2022-10-11T03:16:41.792Z,90.00
2022-10-11T03:19:30.324Z,89.90
2022-10-11T03:22:24.933Z,90.00
2022-10-11T03:25:10.649Z,90.00
2022-10-11T03:27:55.917Z,90.10
2022-10-11T03:30:41.318Z,90.10
2022-10-11T03:33:29.671Z,90.00
2022-10-11T03:36:14.795Z,90.00
2022-10-11T03:39:00.612Z,90.00
2022-10-11T03:41:46.002Z,90.10
2022-10-11T03:44:31.276Z,90.00
2022-10-11T03:47:17.232Z,90.10
2022-10-11T03:50:02.792Z,90.10
2022-10-11T03:52:48.620Z,90.10
2022-10-11T03:55:33.811Z,90.10
2022-10-11T03:58:19.061Z,90.20
2022-10-11T04:01:08.112Z,90.40
2022-10-11T04:03:57.498Z,90.40
2022-10-11T04:06:42.842Z,90.40
2022-10-11T04:09:28.831Z,90.40
2022-10-11T04:12:14.889Z,90.30
2022-10-11T04:14:59.979Z,90.30
2022-10-11T04:17:45.539Z,90.30
2022-10-11T04:20:31.269Z,90.30
2022-10-11T04:23:16.593Z,89.70
2022-10-11T04:26:07.590Z,88.90
2022-10-11T04:28:53.378Z,88.70
2022-10-11T04:31:38.487Z,88.90
2022-10-11T04:34:24.387Z,89.50
2022-10-11T04:37:29.800Z,90.00
2022-10-11T04:40:14.793Z,90.20
2022-10-11T04:43:00.475Z,90.40
2022-10-11T04:45:45.952Z,90.30
2022-10-11T04:48:31.607Z,90.50
2022-10-11T04:51:17.400Z,90.80
2022-10-11T04:54:02.875Z,90.80
2022-10-11T04:56:48.443Z,90.90
2022-10-11T04:59:33.791Z,91.20
2022-10-11T05:02:19.360Z,91.60
2022-10-11T05:05:05.271Z,91.70
2022-10-11T05:07:50.387Z,91.80
2022-10-11T05:10:35.861Z,91.90
2022-10-11T05:13:21.146Z,92.00
2022-10-11T05:16:10.575Z,91.90
2022-10-11T05:18:56.685Z,91.80
2022-10-11T05:21:42.137Z,91.90
2022-10-11T05:24:27.607Z,92.20
2022-10-11T05:27:12.886Z,92.20
2022-10-11T05:29:58.537Z,92.20
2022-10-11T05:32:44.132Z,92.50
2022-10-11T05:35:29.538Z,92.50
2022-10-11T05:38:14.724Z,92.50
2022-10-11T05:41:01.411Z,92.70
2022-10-11T05:43:47.260Z,92.90
2022-10-11T05:46:33.148Z,92.90
2022-10-11T05:49:18.310Z,92.70
2022-10-11T05:52:06.701Z,92.60
2022-10-11T05:54:52.144Z,92.50
2022-10-11T05:57:37.536Z,92.40
2022-10-11T06:00:24.011Z,92.50
2022-10-11T06:03:12.592Z,92.40
2022-10-11T06:06:01.646Z,92.40
2022-10-11T06:08:50.658Z,92.30
2022-10-11T06:11:36.107Z,92.10
2022-10-11T06:14:25.474Z,92.10
2022-10-11T06:17:10.911Z,91.90
2022-10-11T06:19:56.351Z,92.00
2022-10-11T06:22:42.624Z,92.00
2022-10-11T06:25:27.733Z,92.00
2022-10-11T06:28:16.197Z,92.00
2022-10-11T06:31:04.392Z,92.00
2022-10-11T06:33:52.644Z,91.90
2022-10-11T06:36:38.034Z,91.80
2022-10-11T06:39:23.682Z,91.80
2022-10-11T06:42:11.331Z,91.80
2022-10-11T06:44:56.807Z,91.80
2022-10-11T06:47:42.151Z,91.80
2022-10-11T06:50:54.470Z,91.80
2022-10-11T06:53:35.508Z,91.70
2022-10-11T06:56:20.917Z,91.60
2022-10-11T06:59:06.212Z,91.50
2022-10-11T07:01:51.495Z,91.50
2022-10-11T07:04:37.090Z,91.50
2022-10-11T07:07:25.079Z,91.40
2022-10-11T07:10:10.615Z,91.30
2022-10-11T07:12:55.750Z,91.20
2022-10-11T07:15:41.283Z,91.20
2022-10-11T07:18:26.566Z,91.10
2022-10-11T07:21:14.804Z,90.90
2022-10-11T07:24:00.943Z,90.80
2022-10-11T07:26:46.444Z,90.70
2022-10-11T07:29:32.058Z,90.60
2022-10-11T07:32:17.706Z,90.50
2022-10-11T07:35:03.152Z,90.40
2022-10-11T07:37:48.351Z,90.30
2022-10-11T07:40:40.515Z,90.60
2022-10-11T07:43:26.174Z,90.30
2022-10-11T07:46:11.863Z,90.20
2022-10-11T07:49:00.317Z,90.00
2022-10-11T07:51:45.866Z,90.00
2022-10-11T07:54:33.027Z,89.80
2022-10-11T07:57:18.728Z,89.50
2022-10-11T08:00:10.019Z,89.20
2022-10-11T08:02:59.542Z,88.90
2022-10-11T08:05:45.080Z,88.70
2022-10-11T08:08:31.342Z,88.30
2022-10-11T08:11:22.366Z,88.20
2022-10-11T08:14:09.210Z,88.20
2022-10-11T08:16:54.292Z,88.20
2022-10-11T08:19:40.319Z,88.00
2022-10-11T08:22:25.899Z,87.80
2022-10-11T08:25:11.397Z,87.60
2022-10-11T08:27:56.852Z,87.60
2022-10-11T08:30:49.309Z,87.40
2022-10-11T08:33:34.765Z,87.10
2022-10-11T08:36:19.972Z,86.90
2022-10-11T08:39:06.579Z,86.70
2022-10-11T08:41:55.621Z,86.50
2022-10-11T08:45:09.565Z,86.20
2022-10-11T08:48:12.738Z,86.00
2022-10-11T08:50:59.096Z,85.70
2022-10-11T08:53:53.500Z,85.20
2022-10-11T08:56:39.993Z,84.60
2022-10-11T08:59:47.866Z,83.80
2022-10-11T09:03:14.329Z,82.60
2022-10-11T09:06:07.402Z,81.80
2022-10-11T09:09:09.125Z,80.10
2022-10-11T09:12:15.584Z,79.10
2022-10-11T09:15:20.230Z,78.40
2022-10-11T09:18:26.825Z,77.70
2022-10-11T09:21:21.053Z,76.80
2022-10-11T09:24:36.562Z,75.70
2022-10-11T09:28:04.246Z,76.10
2022-10-11T09:30:53.624Z,76.00
2022-10-11T09:33:50.640Z,75.40
2022-10-11T09:37:03.384Z,75.10
2022-10-11T09:39:57.357Z,74.50
2022-10-11T09:42:42.634Z,73.70
2022-10-11T09:45:27.944Z,73.70
2022-10-11T09:48:21.386Z,72.50
2022-10-11T09:51:14.687Z,71.80
2022-10-11T09:54:05.775Z,71.40
2022-10-11T09:56:51.712Z,71.20
2022-10-11T09:59:37.599Z,69.80
2022-10-11T10:02:24.739Z,69.50
2022-10-11T10:05:10.096Z,68.80
2022-10-11T10:08:22.756Z,68.60
2022-10-11T10:11:09.731Z,68.50
2022-10-11T10:13:56.242Z,67.50
2022-10-11T10:16:44.330Z,67.10
2022-10-11T10:19:33.508Z,66.40
2022-10-11T10:22:27.635Z,66.10
2022-10-11T10:25:26.022Z,66.00
2022-10-11T10:28:24.530Z,66.20
2022-10-11T10:31:23.044Z,63.00
2022-10-11T10:34:18.699Z,63.00
2022-10-11T10:37:19.981Z,62.10
2022-10-11T10:40:32.509Z,61.20
2022-10-11T10:43:23.569Z,60.70
2022-10-11T10:46:21.271Z,60.90
2022-10-11T10:49:52.587Z,60.60
2022-10-11T10:53:00.850Z,59.80
2022-10-11T10:55:52.449Z,58.80
2022-10-11T10:59:03.058Z,58.10
2022-10-11T11:02:35.379Z,57.50
2022-10-11T11:05:30.460Z,57.00
2022-10-11T11:08:19.005Z,55.80
2022-10-11T11:11:13.282Z,54.90
2022-10-11T11:14:19.753Z,50.60
2022-10-11T11:17:40.926Z,50.70
2022-10-11T11:21:09.093Z,48.30
2022-10-11T11:24:00.808Z,45.60
2022-10-11T11:27:10.049Z,46.10
2022-10-11T11:30:08.169Z,43.10
2022-10-11T11:33:26.994Z,41.20
2022-10-11T11:36:18.037Z,40.40
2022-10-11T11:39:06.831Z,38.60
2022-10-11T11:42:15.251Z,39.10
2022-10-11T11:45:16.304Z,39.50
2022-10-11T11:48:12.499Z,39.70
2022-10-11T11:51:15.936Z,38.20
2022-10-11T11:54:06.266Z,37.50
2022-10-11T11:57:11.941Z,34.40
2022-10-11T12:00:06.533Z,33.60
2022-10-11T12:03:29.768Z,32.00
2022-10-11T12:06:31.631Z,29.80
2022-10-11T12:09:17.104Z,29.00
2022-10-11T12:12:06.810Z,30.90
2022-10-11T12:15:02.303Z,29.70
2022-10-11T12:17:57.122Z,29.20
2022-10-11T12:20:44.281Z,29.50
2022-10-11T12:23:29.957Z,30.20
2022-10-11T12:26:27.435Z,28.20
2022-10-11T12:29:20.789Z,26.10
2022-10-11T12:32:10.906Z,26.30
2022-10-11T12:35:37.193Z,25.60
2022-10-11T12:38:30.913Z,24.60
2022-10-11T12:41:17.190Z,24.00
2022-10-11T12:44:13.434Z,23.50
2022-10-11T12:47:32.726Z,23.10
2022-10-11T12:50:36.790Z,24.00
2022-10-11T12:54:02.280Z,23.80
2022-10-11T12:57:31.742Z,24.30
2022-10-11T13:00:28.119Z,25.30
2022-10-11T13:03:33.498Z,26.10
2022-10-11T13:06:48.711Z,27.60
2022-10-11T13:09:39.202Z,28.90
2022-10-11T13:12:27.556Z,30.00
2022-10-11T13:15:20.811Z,31.30
2022-10-11T13:18:06.313Z,32.70
2022-10-11T13:20:52.351Z,33.70
2022-10-11T13:23:44.468Z,34.50
2022-10-11T13:26:31.307Z,35.50
2022-10-11T13:29:37.070Z,36.70
2022-10-11T13:32:26.335Z,38.30
2022-10-11T13:35:31.516Z,39.70
2022-10-11T13:38:35.047Z,35.90
2022-10-11T13:41:26.411Z,35.50
2022-10-11T13:44:12.806Z,36.10
2022-10-11T13:47:01.091Z,37.00
2022-10-11T13:49:53.444Z,38.40
2022-10-11T13:52:55.660Z,39.10
2022-10-11T13:55:50.080Z,39.90
2022-10-11T13:58:44.872Z,40.70
2022-10-11T14:01:44.426Z,41.50
2022-10-11T14:04:41.551Z,42.00
2022-10-11T14:07:38.275Z,42.30
2022-10-11T14:10:24.768Z,43.10
2022-10-11T14:13:25.673Z,43.60
2022-10-11T14:16:20.161Z,44.10
2022-10-11T14:19:10.703Z,44.50
2022-10-11T14:21:56.456Z,44.90
2022-10-11T14:24:43.535Z,45.30
2022-10-11T14:27:29.428Z,45.40
2022-10-11T14:30:26.451Z,45.70
2022-10-11T14:33:12.934Z,45.70
2022-10-11T14:35:58.184Z,45.90
2022-10-11T14:38:43.884Z,45.80
2022-10-11T14:41:29.161Z,46.10
2022-10-11T14:44:18.535Z,46.10
2022-10-11T14:47:06.692Z,46.30
2022-10-11T14:49:54.939Z,46.30
2022-10-11T14:52:40.402Z,46.30
2022-10-11T14:55:26.350Z,45.50
2022-10-11T14:58:15.649Z,44.20
2022-10-11T15:01:01.102Z,43.50
2022-10-11T15:03:49.408Z,43.50
2022-10-11T15:06:38.774Z,40.80
2022-10-11T15:09:25.200Z,36.70
2022-10-11T15:12:10.508Z,33.60
2022-10-11T15:14:56.092Z,30.70
2022-10-11T15:17:41.467Z,29.40
2022-10-11T15:20:42.428Z,29.10
2022-10-11T15:23:31.224Z,29.10
2022-10-11T15:26:20.097Z,29.40
2022-10-11T15:29:06.830Z,29.70
2022-10-11T15:31:52.091Z,30.10
2022-10-11T15:34:37.673Z,30.80
2022-10-11T15:37:25.486Z,32.10
2022-10-11T15:40:21.095Z,33.20
2022-10-11T15:43:06.723Z,34.90
2022-10-11T15:45:52.647Z,36.00
2022-10-11T15:48:38.674Z,37.00
2022-10-11T15:51:23.999Z,37.70
2022-10-11T15:54:09.592Z,37.90
2022-10-11T15:56:55.674Z,38.60
2022-10-11T15:59:41.129Z,39.80
2022-10-11T16:02:26.802Z,39.90
2022-10-11T16:05:12.080Z,38.80
2022-10-11T16:07:57.722Z,37.30
2022-10-11T16:10:44.376Z,36.60
2022-10-11T16:13:30.155Z,36.50
2022-10-11T16:16:15.668Z,36.20
2022-10-11T16:19:01.143Z,36.10
2022-10-11T16:21:46.431Z,36.40
2022-10-11T16:24:31.917Z,37.10
2022-10-11T16:27:19.022Z,38.30
2022-10-11T16:30:06.083Z,39.10
2022-10-11T16:32:54.964Z,40.60
2022-10-11T16:35:43.914Z,41.80
2022-10-11T16:38:29.040Z,43.00
2022-10-11T16:41:14.648Z,43.90
2022-10-11T16:43:59.971Z,44.80
2022-10-11T16:46:48.265Z,45.90
2022-10-11T16:49:36.430Z,46.90
2022-10-11T16:52:21.847Z,48.20
2022-10-11T16:55:07.599Z,49.30
2022-10-11T16:57:53.043Z,50.40
2022-10-11T17:00:43.424Z,51.20
2022-10-11T17:03:35.436Z,52.40
2022-10-11T17:06:20.532Z,53.10
2022-10-11T17:09:09.395Z,53.70
2022-10-11T17:11:54.490Z,54.30
2022-10-11T17:14:41.192Z,54.80
2022-10-11T17:21:35.272Z,56.10
2022-10-11T17:24:24.116Z,56.50
2022-10-11T17:27:09.784Z,57.10
2022-10-11T17:29:58.112Z,57.80
2022-10-11T17:32:43.698Z,58.20
2022-10-11T17:35:31.904Z,58.60
2022-10-11T17:38:19.920Z,59.20
2022-10-11T17:41:08.526Z,59.60
2022-10-11T17:43:54.195Z,60.20
2022-10-11T17:46:40.167Z,60.90
2022-10-11T17:49:25.774Z,61.60
2022-10-11T17:52:13.887Z,62.20
2022-10-11T17:54:59.288Z,62.70
2022-10-11T17:57:44.953Z,63.30
2022-10-11T18:00:30.200Z,63.60
2022-10-11T18:03:15.556Z,64.20
2022-10-11T18:06:06.326Z,64.70
2022-10-11T18:08:51.647Z,65.40
2022-10-11T18:11:47.652Z,65.50
2022-10-11T18:14:33.105Z,65.90
2022-10-11T18:17:18.985Z,66.40
2022-10-11T18:20:06.553Z,66.90
2022-10-11T18:22:56.062Z,67.20
2022-10-11T18:25:41.688Z,67.20
2022-10-11T18:28:27.256Z,67.20
2022-10-11T18:31:16.843Z,67.30
2022-10-11T18:34:08.287Z,67.50
2022-10-11T18:36:54.073Z,67.60
2022-10-11T18:39:39.597Z,67.70
2022-10-11T18:42:25.081Z,68.10
2022-10-11T18:45:10.943Z,68.60
2022-10-11T18:47:56.185Z,68.90
2022-10-11T18:50:41.379Z,69.50
2022-10-11T18:53:26.926Z,69.60
2022-10-11T18:56:13.486Z,69.50
2022-10-11T18:58:59.080Z,69.90
2022-10-11T19:01:44.974Z,70.30
2022-10-11T19:04:34.056Z,70.30
2022-10-11T19:07:20.939Z,70.40
2022-10-11T19:10:06.719Z,70.70
2022-10-11T19:12:51.908Z,70.80
2022-10-11T19:15:37.754Z,71.20
2022-10-11T19:18:22.953Z,71.50
2022-10-11T19:21:12.471Z,72.00
2022-10-11T19:23:58.355Z,72.60
2022-10-11T19:26:44.013Z,73.10
2022-10-11T19:29:30.412Z,73.60
2022-10-11T19:32:18.563Z,73.80
2022-10-11T19:35:04.127Z,74.30
2022-10-11T19:37:49.683Z,74.70
2022-10-11T19:40:38.214Z,75.10
2022-10-11T19:43:24.400Z,75.60
2022-10-11T19:46:20.187Z,75.80
2022-10-11T19:49:15.713Z,76.20
2022-10-11T19:52:01.495Z,76.50
2022-10-11T19:54:46.565Z,76.80
2022-10-11T19:57:32.410Z,77.30
2022-10-11T20:00:18.240Z,77.60
2022-10-11T20:03:04.030Z,77.90
2022-10-11T20:05:52.562Z,78.30
2022-10-11T20:08:38.094Z,78.70
2022-10-11T20:11:24.499Z,79.10
2022-10-11T20:14:10.392Z,80.00
2022-10-11T20:16:55.666Z,79.70
2022-10-11T20:19:45.371Z,80.40
2022-10-11T20:22:31.189Z,80.40
2022-10-11T20:25:16.801Z,80.60
2022-10-11T20:28:04.251Z,80.90
2022-10-11T20:30:50.324Z,81.10
2022-10-11T20:33:35.776Z,81.20
2022-10-11T20:36:22.689Z,81.50
2022-10-11T20:39:08.153Z,82.00
2022-10-11T20:41:53.561Z,82.20
2022-10-11T20:44:38.888Z,82.40
2022-10-11T20:47:24.690Z,82.50
2022-10-11T20:50:10.275Z,82.70
2022-10-11T20:52:55.692Z,83.00
2022-10-11T20:55:41.151Z,83.20
2022-10-11T20:58:29.487Z,83.30
2022-10-11T21:01:20.669Z,83.60
2022-10-11T21:04:07.258Z,83.70
2022-10-11T21:06:52.523Z,84.00
2022-10-11T21:09:37.905Z,84.10
2022-10-11T21:12:23.464Z,84.30
2022-10-11T21:15:09.290Z,84.40
2022-10-11T21:17:55.023Z,84.40
2022-10-11T21:20:44.183Z,84.80
2022-10-11T21:23:30.016Z,85.20
2022-10-11T21:26:18.328Z,85.50
2022-10-11T21:29:04.145Z,85.60
2022-10-11T21:31:52.359Z,85.70
2022-10-11T21:34:37.739Z,85.80
2022-10-11T21:37:23.363Z,86.00
2022-10-11T21:40:09.398Z,86.20
2022-10-11T21:42:54.537Z,86.20
2022-10-11T21:45:40.271Z,86.30
2022-10-11T21:48:25.776Z,86.50
2022-10-11T21:51:18.785Z,86.80
2022-10-11T21:54:10.078Z,86.70
2022-10-11T21:56:55.359Z,87.00
2022-10-11T21:59:40.839Z,87.10
2022-10-11T22:02:26.255Z,87.30
2022-10-11T22:05:14.510Z,87.50
2022-10-11T22:07:59.855Z,87.50
2022-10-11T22:10:52.461Z,87.70
2022-10-11T22:13:38.304Z,87.90
2022-10-11T22:16:23.779Z,87.90
2022-10-11T22:19:09.415Z,88.10
2022-10-11T22:21:54.855Z,88.30
2022-10-11T22:24:40.195Z,88.30
2022-10-11T22:27:28.718Z,88.30
2022-10-11T22:30:17.523Z,88.50
2022-10-11T22:33:03.095Z,88.70
2022-10-11T22:36:00.030Z,88.80
2022-10-11T22:38:45.911Z,88.90
2022-10-11T22:41:33.922Z,88.90
2022-10-11T22:44:19.278Z,89.10
2022-10-11T22:47:07.229Z,89.10
2022-10-11T22:49:52.699Z,89.50
2022-10-11T22:52:39.058Z,89.40
2022-10-11T22:55:26.174Z,89.60
2022-10-11T22:58:11.684Z,89.70
2022-10-11T23:00:57.387Z,89.70
2022-10-11T23:03:43.044Z,89.70
2022-10-11T23:06:28.208Z,89.90
2022-10-11T23:09:13.707Z,89.80
2022-10-11T23:11:59.554Z,89.80
2022-10-11T23:14:44.819Z,89.90
2022-10-11T23:17:30.515Z,90.00
2022-10-11T23:20:16.135Z,90.10
2022-10-11T23:23:01.335Z,90.30
2022-10-11T23:25:46.762Z,90.20
2022-10-11T23:28:32.426Z,90.20
2022-10-11T23:31:18.717Z,90.30
2022-10-11T23:34:04.268Z,90.40
2022-10-11T23:36:49.787Z,90.40
2022-10-11T23:39:35.035Z,90.50
2022-10-11T23:42:20.196Z,90.50
2022-10-11T23:45:06.120Z,90.60
2022-10-11T23:47:51.714Z,90.70
2022-10-11T23:50:36.971Z,90.80
2022-10-11T23:53:22.416Z,90.80
2022-10-11T23:56:09.723Z,90.90
2022-10-11T23:58:57.759Z,91.00
